Time;durP1;ratioP1;P1;durP2;ratioP2;P2;SDS_P1;SDS_P2;PMS_P1;PMS_P2;Temp;Humidity;BMP_temperature;BMP_pressure;BME280_temperature;BME280_humidity;BME280_pressure;Samples;Min_cycle;Max_cycle;Signal;HPM_P1;HPM_P2
2021/10/10 00:00:21;;;;;;;32.63;21.27;;;;;;;;;;5034586;28;20556;-73
2021/10/10 00:02:46;;;;;;;36.43;21.87;;;;;;;;;;5031842;28;20192;-73
2021/10/10 00:05:12;;;;;;;36.37;22.47;;;;;;;;;;5041303;28;20186;-73
2021/10/10 00:07:41;;;;;;;37.23;21.83;;;;;;;;;;5029509;28;20190;-73
2021/10/10 00:10:11;;;;;;;38.77;22.83;;;;;;;;;;5040732;28;20240;-73
2021/10/10 00:12:37;;;;;;;34.57;21.67;;;;;;;;;;5032490;28;20193;-73
2021/10/10 00:15:03;;;;;;;30.37;20.20;;;;;;;;;;5042513;28;20245;-73
2021/10/10 00:17:29;;;;;;;40.93;23.10;;;;;;;;;;5033605;28;20182;-73
2021/10/10 00:19:54;;;;;;;32.93;20.37;;;;;;;;;;5041270;28;20280;-73
2021/10/10 00:22:19;;;;;;;36.07;22.30;;;;;;;;;;5030606;28;20249;-73
2021/10/10 00:24:45;;;;;;;36.67;22.70;;;;;;;;;;5038238;28;20268;-73
2021/10/10 00:27:10;;;;;;;40.17;23.27;;;;;;;;;;5030435;28;20276;-72
2021/10/10 00:29:35;;;;;;;33.40;21.70;;;;;;;;;;5035432;28;20269;-72
2021/10/10 00:32:02;;;;;;;35.97;22.37;;;;;;;;;;5042699;28;20174;-73
2021/10/10 00:34:28;;;;;;;38.17;21.17;;;;;;;;;;5033452;28;20777;-73
2021/10/10 00:36:54;;;;;;;35.63;21.53;;;;;;;;;;5038955;28;20194;-73
2021/10/10 00:39:19;;;;;;;34.43;21.40;;;;;;;;;;5035265;28;20247;-73
2021/10/10 00:41:44;;;;;;;35.83;20.70;;;;;;;;;;5039998;28;20190;-73
2021/10/10 00:44:11;;;;;;;33.43;20.40;;;;;;;;;;5031723;28;20244;-73
2021/10/10 00:46:37;;;;;;;32.43;20.23;;;;;;;;;;5041503;28;20251;-73
2021/10/10 00:49:03;;;;;;;35.50;21.47;;;;;;;;;;5032628;28;20193;-73
2021/10/10 00:51:32;;;;;;;32.10;20.77;;;;;;;;;;5037456;28;20181;-73
2021/10/10 00:53:58;;;;;;;36.53;21.00;;;;;;;;;;5037124;28;20209;-73
2021/10/10 00:56:25;;;;;;;32.97;20.20;;;;;;;;;;5035508;28;20189;-73
2021/10/10 00:58:50;;;;;;;33.80;20.67;;;;;;;;;;5035747;28;20325;-73
2021/10/10 01:01:16;;;;;;;34.70;19.60;;;;;;;;;;5040198;28;20184;-73
2021/10/10 01:03:41;;;;;;;33.43;20.17;;;;;;;;;;5042835;28;20193;-73
2021/10/10 01:06:06;;;;;;;33.00;20.63;;;;;;;;;;5029685;28;20178;-73
2021/10/10 01:08:32;;;;;;;32.53;19.77;;;;;;;;;;5041014;28;20298;-73
2021/10/10 01:10:57;;;;;;;37.23;21.07;;;;;;;;;;5033227;28;20343;-73
2021/10/10 01:13:23;;;;;;;32.53;20.23;;;;;;;;;;5046860;28;20274;-73
2021/10/10 01:15:51;;;;;;;34.50;20.90;;;;;;;;;;5034798;28;20201;-73
2021/10/10 01:18:24;;;;;;;34.50;20.87;;;;;;;;;;5036674;28;20190;-73
2021/10/10 01:20:51;;;;;;;35.07;20.43;;;;;;;;;;5034191;28;20200;-73
2021/10/10 01:23:16;;;;;;;38.57;21.80;;;;;;;;;;5039486;28;20190;-73
2021/10/10 01:25:42;;;;;;;39.73;21.33;;;;;;;;;;5035234;28;20189;-73
2021/10/10 01:28:07;;;;;;;33.53;21.03;;;;;;;;;;5042518;28;20626;-73
2021/10/10 01:30:33;;;;;;;34.67;20.53;;;;;;;;;;5034690;28;20575;-73
2021/10/10 01:32:58;;;;;;;31.40;20.73;;;;;;;;;;5042906;28;20189;-73
2021/10/10 01:35:24;;;;;;;35.13;20.53;;;;;;;;;;5042627;28;20205;-73
2021/10/10 01:37:49;;;;;;;34.03;19.87;;;;;;;;;;5032548;28;20194;-73
2021/10/10 01:40:15;;;;;;;30.10;19.83;;;;;;;;;;5040838;28;20212;-73
2021/10/10 01:42:40;;;;;;;33.03;20.50;;;;;;;;;;5032849;28;20185;-73
2021/10/10 01:45:17;;;;;;;33.80;19.80;;;;;;;;;;5039939;28;20189;-73
2021/10/10 01:47:42;;;;;;;34.33;20.50;;;;;;;;;;5031360;28;20293;-73
2021/10/10 01:50:08;;;;;;;39.37;21.50;;;;;;;;;;5039069;28;20264;-73
2021/10/10 01:52:34;;;;;;;32.83;21.33;;;;;;;;;;5032609;28;20650;-73
2021/10/10 01:54:59;;;;;;;35.43;20.87;;;;;;;;;;5041124;28;20293;-73
2021/10/10 01:57:24;;;;;;;39.53;21.23;;;;;;;;;;5029921;28;20278;-73
2021/10/10 01:59:50;;;;;;;33.50;20.67;;;;;;;;;;5041780;28;20565;-73
2021/10/10 02:02:15;;;;;;;33.90;21.00;;;;;;;;;;5029978;28;20285;-73
2021/10/10 02:04:40;;;;;;;43.17;22.03;;;;;;;;;;5038307;28;20272;-73
2021/10/10 02:07:06;;;;;;;35.27;21.17;;;;;;;;;;5039083;28;20197;-73
2021/10/10 02:09:31;;;;;;;32.33;20.77;;;;;;;;;;5035918;28;20290;-73
2021/10/10 02:11:56;;;;;;;31.93;20.40;;;;;;;;;;5034862;28;20228;-73
2021/10/10 02:14:22;;;;;;;32.73;21.03;;;;;;;;;;5033528;28;20240;-73
2021/10/10 02:16:47;;;;;;;34.97;19.67;;;;;;;;;;5039510;28;20177;-73
2021/10/10 02:19:12;;;;;;;32.03;20.00;;;;;;;;;;5033531;28;20188;-73
2021/10/10 02:21:38;;;;;;;30.57;19.63;;;;;;;;;;5036614;28;20186;-73
2021/10/10 02:24:03;;;;;;;32.93;19.63;;;;;;;;;;5031454;28;20181;-73
2021/10/10 02:26:29;;;;;;;30.53;19.60;;;;;;;;;;5036854;28;20189;-73
2021/10/10 02:28:54;;;;;;;33.33;19.30;;;;;;;;;;5036002;28;20194;-73
2021/10/10 02:31:19;;;;;;;37.13;21.03;;;;;;;;;;5035824;28;20200;-72
2021/10/10 02:33:45;;;;;;;32.13;20.67;;;;;;;;;;5039017;28;20227;-73
2021/10/10 02:36:11;;;;;;;35.53;20.30;;;;;;;;;;5030254;28;20548;-72
2021/10/10 02:38:36;;;;;;;31.27;20.27;;;;;;;;;;5036761;28;20526;-72
2021/10/10 02:41:01;;;;;;;39.03;20.83;;;;;;;;;;5034799;28;20196;-73
2021/10/10 02:43:27;;;;;;;37.93;22.17;;;;;;;;;;5045583;28;20185;-73
2021/10/10 02:45:52;;;;;;;35.63;20.53;;;;;;;;;;5036887;28;20189;-73
2021/10/10 02:48:17;;;;;;;34.97;21.40;;;;;;;;;;5043109;28;20186;-73
2021/10/10 02:50:43;;;;;;;33.73;21.23;;;;;;;;;;5038553;28;20186;-73
2021/10/10 02:53:08;;;;;;;37.30;21.30;;;;;;;;;;5039369;28;20334;-72
2021/10/10 02:55:34;;;;;;;32.33;20.37;;;;;;;;;;5040848;28;20224;-72
2021/10/10 02:57:59;;;;;;;33.33;20.83;;;;;;;;;;5044549;28;20668;-72
2021/10/10 03:00:24;;;;;;;35.67;20.10;;;;;;;;;;5038131;28;20683;-73
2021/10/10 03:02:50;;;;;;;29.80;19.77;;;;;;;;;;5038391;28;20217;-73
2021/10/10 03:05:15;;;;;;;30.20;19.90;;;;;;;;;;5045573;28;20174;-72
2021/10/10 03:07:40;;;;;;;33.83;19.70;;;;;;;;;;5033655;28;20194;-73
2021/10/10 03:10:06;;;;;;;32.07;20.03;;;;;;;;;;5047860;28;20716;-74
2021/10/10 03:12:31;;;;;;;34.73;20.87;;;;;;;;;;5032240;28;20182;-73
2021/10/10 03:14:57;;;;;;;35.57;21.50;;;;;;;;;;5038885;28;20234;-73
2021/10/10 03:17:22;;;;;;;34.03;20.77;;;;;;;;;;5030161;28;20293;-73
2021/10/10 03:19:47;;;;;;;35.27;21.60;;;;;;;;;;5043647;28;20190;-73
2021/10/10 03:22:13;;;;;;;30.30;20.83;;;;;;;;;;5030014;28;20193;-73
2021/10/10 03:24:38;;;;;;;36.40;21.13;;;;;;;;;;5037827;28;20193;-73
2021/10/10 03:27:03;;;;;;;39.40;22.53;;;;;;;;;;5032383;28;20185;-73
2021/10/10 03:29:29;;;;;;;38.00;21.90;;;;;;;;;;5045664;28;20276;-73
2021/10/10 03:31:54;;;;;;;36.73;21.67;;;;;;;;;;5032225;28;20269;-73
2021/10/10 03:34:19;;;;;;;38.63;21.73;;;;;;;;;;5038897;28;20218;-73
2021/10/10 03:36:45;;;;;;;38.00;20.80;;;;;;;;;;5042199;28;20240;-73
2021/10/10 03:39:10;;;;;;;35.40;21.93;;;;;;;;;;5031761;28;20252;-73
2021/10/10 03:41:35;;;;;;;39.67;22.27;;;;;;;;;;5042865;28;20268;-73
2021/10/10 03:44:01;;;;;;;39.17;22.17;;;;;;;;;;5036547;28;20464;-73
2021/10/10 03:46:26;;;;;;;35.47;22.27;;;;;;;;;;5039557;28;20774;-74
2021/10/10 03:48:51;;;;;;;37.40;22.97;;;;;;;;;;5037772;28;20182;-72
2021/10/10 03:51:17;;;;;;;33.93;21.27;;;;;;;;;;5038956;28;20516;-72
2021/10/10 03:54:20;;;;;;;34.30;21.40;;;;;;;;;;5033639;28;20224;-72
2021/10/10 03:56:36;;;;;;;37.93;21.97;;;;;;;;;;5042927;28;20554;-73
2021/10/10 03:59:02;;;;;;;37.90;22.83;;;;;;;;;;5030146;28;20263;-72
2021/10/10 04:01:28;;;;;;;36.27;22.60;;;;;;;;;;5041179;28;20186;-73
2021/10/10 04:03:53;;;;;;;38.37;22.13;;;;;;;;;;5026936;28;20193;-72
2021/10/10 04:06:19;;;;;;;36.90;22.23;;;;;;;;;;5043315;28;20633;-73
2021/10/10 04:08:44;;;;;;;34.80;21.03;;;;;;;;;;5038368;28;20193;-73
2021/10/10 04:11:10;;;;;;;39.70;22.47;;;;;;;;;;5039480;28;20587;-73
2021/10/10 04:13:36;;;;;;;36.10;21.47;;;;;;;;;;5038437;28;20197;-73
2021/10/10 04:16:02;;;;;;;34.37;20.77;;;;;;;;;;5038334;28;20204;-73
2021/10/10 04:18:27;;;;;;;35.53;21.23;;;;;;;;;;5040887;28;20190;-73
2021/10/10 04:20:52;;;;;;;36.97;22.67;;;;;;;;;;5036457;28;20196;-73
2021/10/10 04:23:18;;;;;;;35.80;21.50;;;;;;;;;;5043551;28;20177;-73
2021/10/10 04:25:43;;;;;;;42.20;22.57;;;;;;;;;;5036223;28;20604;-73
2021/10/10 04:28:08;;;;;;;37.20;20.80;;;;;;;;;;5035639;28;20197;-73
2021/10/10 04:30:34;;;;;;;33.57;20.63;;;;;;;;;;5026356;28;20185;-73
2021/10/10 04:32:59;;;;;;;36.83;21.40;;;;;;;;;;5039142;28;20201;-73
2021/10/10 04:35:25;;;;;;;30.90;20.07;;;;;;;;;;5026716;28;20580;-73
2021/10/10 04:37:51;;;;;;;33.50;20.00;;;;;;;;;;5040392;28;20174;-73
2021/10/10 04:40:16;;;;;;;30.87;20.23;;;;;;;;;;5034418;28;20200;-73
2021/10/10 04:42:41;;;;;;;34.07;20.37;;;;;;;;;;5034894;28;20196;-73
2021/10/10 04:45:07;;;;;;;33.83;21.17;;;;;;;;;;5041528;28;20173;-73
2021/10/10 04:47:32;;;;;;;31.77;20.37;;;;;;;;;;5026404;28;20192;-73
2021/10/10 04:49:58;;;;;;;31.63;20.93;;;;;;;;;;5041411;28;20239;-73
2021/10/10 04:52:24;;;;;;;32.37;21.00;;;;;;;;;;5035203;28;20185;-73
2021/10/10 04:54:49;;;;;;;32.80;20.13;;;;;;;;;;5041501;28;20206;-73
2021/10/10 04:57:15;;;;;;;33.40;20.13;;;;;;;;;;5034788;28;20201;-72
2021/10/10 04:59:41;;;;;;;38.73;21.60;;;;;;;;;;5039437;28;20278;-73
2021/10/10 05:02:06;;;;;;;33.10;20.90;;;;;;;;;;5026857;28;20186;-72
2021/10/10 05:04:31;;;;;;;37.77;23.47;;;;;;;;;;5029397;28;20200;-72
2021/10/10 05:06:57;;;;;;;35.33;21.97;;;;;;;;;;5025350;28;20220;-72
2021/10/10 05:09:22;;;;;;;31.17;19.83;;;;;;;;;;5032578;28;20228;-73
2021/10/10 05:11:48;;;;;;;31.60;20.17;;;;;;;;;;5031919;28;20189;-73
2021/10/10 05:14:13;;;;;;;35.60;21.13;;;;;;;;;;5026091;28;20524;-73
2021/10/10 05:16:38;;;;;;;32.40;20.80;;;;;;;;;;5034166;28;20177;-73
2021/10/10 05:19:04;;;;;;;31.63;20.43;;;;;;;;;;5030236;28;20197;-73
2021/10/10 05:21:29;;;;;;;34.70;19.97;;;;;;;;;;4681844;28;10000485;-73
2021/10/10 05:23:54;;;;;;;31.63;20.70;;;;;;;;;;5026378;28;20265;-73
2021/10/10 05:26:20;;;;;;;37.30;20.67;;;;;;;;;;5031652;28;20246;-72
2021/10/10 05:28:45;;;;;;;32.43;20.60;;;;;;;;;;5024556;28;20240;-72
2021/10/10 05:31:10;;;;;;;32.93;20.97;;;;;;;;;;5033527;28;20192;-72
2021/10/10 05:33:36;;;;;;;36.57;21.07;;;;;;;;;;5025657;28;20267;-73
2021/10/10 05:36:02;;;;;;;30.80;20.23;;;;;;;;;;5031907;28;20186;-72
2021/10/10 05:38:27;;;;;;;34.37;20.40;;;;;;;;;;5025493;28;20254;-73
2021/10/10 05:40:53;;;;;;;33.40;20.53;;;;;;;;;;5034451;28;20193;-73
2021/10/10 05:43:18;;;;;;;33.50;20.17;;;;;;;;;;5029182;28;20193;-72
2021/10/10 05:45:43;;;;;;;33.87;20.80;;;;;;;;;;5027073;28;20192;-72
2021/10/10 05:48:09;;;;;;;34.20;20.27;;;;;;;;;;5036074;28;20185;-72
2021/10/10 05:50:34;;;;;;;39.47;21.23;;;;;;;;;;5028350;28;20559;-72
2021/10/10 05:53:06;;;;;;;31.97;20.67;;;;;;;;;;5035882;28;20177;-73
2021/10/10 05:55:32;;;;;;;31.33;19.60;;;;;;;;;;5022382;28;20206;-73
2021/10/10 05:58:02;;;;;;;35.77;20.83;;;;;;;;;;5033697;28;20569;-73
2021/10/10 06:00:27;;;;;;;33.27;20.33;;;;;;;;;;5024958;28;20193;-73
2021/10/10 06:02:53;;;;;;;32.83;19.67;;;;;;;;;;5029557;28;20661;-73
2021/10/10 06:05:18;;;;;;;32.60;20.47;;;;;;;;;;5024118;28;20259;-72
2021/10/10 06:07:44;;;;;;;36.40;21.43;;;;;;;;;;5036940;28;20239;-72
2021/10/10 06:10:10;;;;;;;37.00;21.60;;;;;;;;;;5024504;28;20228;-72
2021/10/10 06:12:37;;;;;;;35.93;21.27;;;;;;;;;;5032394;28;20245;-72
2021/10/10 06:15:05;;;;;;;36.53;22.27;;;;;;;;;;5032120;28;20210;-72
2021/10/10 06:17:34;;;;;;;36.53;22.30;;;;;;;;;;5034565;28;20187;-72
2021/10/10 06:20:00;;;;;;;39.83;22.40;;;;;;;;;;5035499;28;20261;-72
2021/10/10 06:22:26;;;;;;;38.07;22.83;;;;;;;;;;5027579;28;20185;-72
2021/10/10 06:24:51;;;;;;;37.17;22.07;;;;;;;;;;5038223;28;20266;-72
2021/10/10 06:27:17;;;;;;;39.30;22.93;;;;;;;;;;5028439;28;20207;-72
2021/10/10 06:29:44;;;;;;;40.90;23.20;;;;;;;;;;5035327;28;20266;-72
2021/10/10 06:32:10;;;;;;;33.70;21.17;;;;;;;;;;5025315;28;20527;-72
2021/10/10 06:34:35;;;;;;;36.60;22.47;;;;;;;;;;5035578;28;20217;-72
2021/10/10 06:37:01;;;;;;;37.83;22.57;;;;;;;;;;5028873;28;20194;-72
2021/10/10 06:39:26;;;;;;;35.97;22.87;;;;;;;;;;5036821;28;20649;-72
2021/10/10 06:41:51;;;;;;;35.50;23.00;;;;;;;;;;5025431;28;20254;-72
2021/10/10 06:44:17;;;;;;;34.97;22.87;;;;;;;;;;5039015;28;20174;-72
2021/10/10 06:46:44;;;;;;;40.37;22.97;;;;;;;;;;5029621;28;20194;-72
2021/10/10 06:49:10;;;;;;;34.87;22.03;;;;;;;;;;5037363;28;20380;-72
2021/10/10 06:51:35;;;;;;;37.63;22.77;;;;;;;;;;5038752;28;20312;-73
2021/10/10 06:54:00;;;;;;;37.97;23.03;;;;;;;;;;5025684;28;20213;-73
2021/10/10 06:56:26;;;;;;;34.80;22.90;;;;;;;;;;5040929;28;20205;-72
2021/10/10 06:58:51;;;;;;;34.60;22.50;;;;;;;;;;5033539;28;20204;-72
2021/10/10 07:01:16;;;;;;;42.07;25.00;;;;;;;;;;5036023;28;20211;-72
2021/10/10 07:03:43;;;;;;;38.17;23.93;;;;;;;;;;5028444;28;20193;-72
2021/10/10 07:06:09;;;;;;;40.23;23.80;;;;;;;;;;5036224;28;20189;-72
2021/10/10 07:08:34;;;;;;;39.53;25.03;;;;;;;;;;5021727;28;20194;-71
2021/10/10 07:11:00;;;;;;;37.77;24.73;;;;;;;;;;5039974;28;20480;-72
2021/10/10 07:13:25;;;;;;;41.50;26.93;;;;;;;;;;5030125;28;20194;-73
2021/10/10 07:15:51;;;;;;;40.47;25.60;;;;;;;;;;5040615;28;20185;-73
2021/10/10 07:18:22;;;;;;;43.67;26.77;;;;;;;;;;5042844;28;20178;-72
2021/10/10 07:23:34;;;;;;;47.70;30.47;;;;;;;;;;5035140;28;20231;-72
2021/10/10 07:26:00;;;;;;;49.43;29.50;;;;;;;;;;5032816;28;20182;-73
2021/10/10 07:28:26;;;;;;;48.27;32.90;;;;;;;;;;5043684;28;20653;-73
2021/10/10 07:30:51;;;;;;;58.37;32.73;;;;;;;;;;5027344;28;20216;-72
2021/10/10 07:33:18;;;;;;;51.77;32.57;;;;;;;;;;5036106;28;20486;-72
2021/10/10 07:35:44;;;;;;;43.87;28.67;;;;;;;;;;5030271;28;20224;-72
2021/10/10 07:38:10;;;;;;;45.43;29.90;;;;;;;;;;5034922;28;20189;-72
2021/10/10 07:40:35;;;;;;;46.00;29.43;;;;;;;;;;5032534;28;20272;-73
2021/10/10 07:43:00;;;;;;;46.23;31.30;;;;;;;;;;5036086;28;20189;-72
2021/10/10 07:45:26;;;;;;;50.63;31.50;;;;;;;;;;5031286;28;20194;-72
2021/10/10 07:47:52;;;;;;;49.97;31.67;;;;;;;;;;5038405;28;20213;-73
2021/10/10 07:50:19;;;;;;;48.10;32.47;;;;;;;;;;5034350;28;20621;-72
2021/10/10 07:52:45;;;;;;;49.07;31.33;;;;;;;;;;5039026;28;20217;-73
2021/10/10 07:55:11;;;;;;;46.77;31.30;;;;;;;;;;5040838;28;20197;-73
2021/10/10 07:57:36;;;;;;;46.77;31.13;;;;;;;;;;5030267;28;20212;-73
2021/10/10 08:00:04;;;;;;;47.33;30.60;;;;;;;;;;5039543;28;20189;-73
2021/10/10 08:02:31;;;;;;;45.23;30.63;;;;;;;;;;5031097;28;20921;-73
2021/10/10 08:04:57;;;;;;;48.70;30.37;;;;;;;;;;5036030;28;20182;-73
2021/10/10 08:07:22;;;;;;;46.23;31.13;;;;;;;;;;5032765;28;20543;-73
2021/10/10 08:09:47;;;;;;;48.83;28.70;;;;;;;;;;5038556;28;20247;-74
2021/10/10 08:12:13;;;;;;;39.03;28.17;;;;;;;;;;5024906;28;20200;-73
2021/10/10 08:14:38;;;;;;;42.05;27.17;;;;;;;;;;5041123;28;20556;-73
2021/10/10 08:17:04;;;;;;;39.63;27.65;;;;;;;;;;5027955;28;20299;-73
2021/10/10 08:19:29;;;;;;;40.53;27.23;;;;;;;;;;5037799;28;20191;-73
2021/10/10 08:21:54;;;;;;;39.57;28.00;;;;;;;;;;5029957;28;20182;-73
2021/10/10 08:24:22;;;;;;;39.80;27.40;;;;;;;;;;5035226;28;20196;-73
2021/10/10 08:26:47;;;;;;;38.72;26.00;;;;;;;;;;5038018;28;20177;-73
2021/10/10 08:29:14;;;;;;;38.60;26.57;;;;;;;;;;5026185;28;20240;-73
2021/10/10 08:31:39;;;;;;;44.53;27.00;;;;;;;;;;5042032;28;20738;-73
2021/10/10 08:34:04;;;;;;;40.67;26.23;;;;;;;;;;5029699;28;20217;-73
2021/10/10 08:36:30;;;;;;;39.87;26.63;;;;;;;;;;5036959;28;20194;-73
2021/10/10 08:38:55;;;;;;;35.50;24.73;;;;;;;;;;5034513;28;20201;-74
2021/10/10 08:41:31;;;;;;;35.23;25.33;;;;;;;;;;5035453;28;20197;-73
2021/10/10 08:43:57;;;;;;;37.17;25.17;;;;;;;;;;5033888;28;20262;-74
2021/10/10 08:46:24;;;;;;;39.10;23.83;;;;;;;;;;5037732;28;20185;-73
2021/10/10 08:48:53;;;;;;;34.60;22.80;;;;;;;;;;5032725;28;20197;-73
2021/10/10 08:51:20;;;;;;;35.22;23.92;;;;;;;;;;5035948;28;20226;-74
2021/10/10 08:53:47;;;;;;;39.33;24.27;;;;;;;;;;5034643;28;26818;-73
2021/10/10 08:56:13;;;;;;;37.65;24.13;;;;;;;;;;5039296;28;20308;-73
2021/10/10 08:58:42;;;;;;;32.95;22.70;;;;;;;;;;5038583;28;20177;-73
2021/10/10 09:01:18;;;;;;;41.47;24.88;;;;;;;;;;5039314;28;20189;-73
2021/10/10 09:03:48;;;;;;;34.72;23.27;;;;;;;;;;5044826;28;20177;-73
2021/10/10 09:06:14;;;;;;;35.35;23.10;;;;;;;;;;5036121;28;20204;-73
2021/10/10 09:08:39;;;;;;;33.97;22.98;;;;;;;;;;5044715;28;20189;-73
2021/10/10 09:11:05;;;;;;;30.55;22.52;;;;;;;;;;5032264;28;20186;-73
2021/10/10 09:13:35;;;;;;;36.17;23.50;;;;;;;;;;5041800;28;20186;-73
2021/10/10 09:16:02;;;;;;;34.70;24.80;;;;;;;;;;5031292;28;20186;-74
2021/10/10 09:18:39;;;;;;;38.80;23.90;;;;;;;;;;5044028;28;20589;-73
2021/10/10 09:21:27;;;;;;;34.88;24.38;;;;;;;;;;5031889;28;20675;-74
2021/10/10 09:23:59;;;;;;;33.33;23.70;;;;;;;;;;5043420;28;20185;-74
2021/10/10 09:26:24;;;;;;;33.30;23.50;;;;;;;;;;5033866;28;20189;-74
2021/10/10 09:28:50;;;;;;;33.53;24.10;;;;;;;;;;5041509;28;20193;-73
2021/10/10 09:31:16;;;;;;;33.97;23.38;;;;;;;;;;5032233;28;20180;-74
2021/10/10 09:33:46;;;;;;;34.10;23.08;;;;;;;;;;5037993;28;20185;-74
2021/10/10 09:36:25;;;;;;;31.77;21.40;;;;;;;;;;5029996;28;20228;-74
2021/10/10 09:39:06;;;;;;;37.25;22.30;;;;;;;;;;5039864;28;20186;-74
2021/10/10 09:44:15;;;;;;;33.83;23.05;;;;;;;;;;5036624;28;20203;-74
2021/10/10 09:46:43;;;;;;;33.35;22.77;;;;;;;;;;5028668;28;20186;-74
2021/10/10 09:49:30;;;;;;;33.50;23.60;;;;;;;;;;5046228;28;20551;-74
2021/10/10 09:52:09;;;;;;;35.78;24.55;;;;;;;;;;5029994;28;20197;-73
2021/10/10 09:54:51;;;;;;;35.50;23.10;;;;;;;;;;5044681;28;20577;-74
2021/10/10 09:57:17;;;;;;;34.40;23.52;;;;;;;;;;5030890;28;20248;-73
2021/10/10 09:59:43;;;;;;;32.00;23.05;;;;;;;;;;5043456;28;20182;-73
2021/10/10 10:02:08;;;;;;;34.47;21.70;;;;;;;;;;5037429;28;20275;-74
2021/10/10 10:04:45;;;;;;;32.35;23.27;;;;;;;;;;5043379;28;20544;-73
2021/10/10 10:07:13;;;;;;;32.47;23.42;;;;;;;;;;5040867;28;20288;-73
2021/10/10 10:09:38;;;;;;;34.03;23.90;;;;;;;;;;5047261;28;20768;-74
2021/10/10 10:12:04;;;;;;;32.67;23.95;;;;;;;;;;5049324;28;20291;-74
2021/10/10 10:14:31;;;;;;;38.33;24.13;;;;;;;;;;5034414;28;20233;-74
2021/10/10 10:17:00;;;;;;;37.38;23.60;;;;;;;;;;5045358;28;20190;-74
2021/10/10 10:19:27;;;;;;;38.20;25.80;;;;;;;;;;5036850;28;20221;-74
2021/10/10 10:21:54;;;;;;;39.70;24.90;;;;;;;;;;5040118;28;20193;-75
2021/10/10 10:24:21;;;;;;;30.00;21.88;;;;;;;;;;5037590;28;20655;-75
2021/10/10 10:26:47;;;;;;;39.65;25.15;;;;;;;;;;5047861;28;20640;-75
2021/10/10 10:29:25;;;;;;;31.48;23.30;;;;;;;;;;5032539;28;20197;-75
2021/10/10 10:31:53;;;;;;;36.33;25.15;;;;;;;;;;5040816;28;20284;-74
2021/10/10 10:34:21;;;;;;;37.25;24.63;;;;;;;;;;5036206;28;20205;-74
2021/10/10 10:37:04;;;;;;;33.00;24.35;;;;;;;;;;5044569;28;20200;-74
2021/10/10 10:39:33;;;;;;;34.35;24.05;;;;;;;;;;5034557;28;20558;-74
2021/10/10 10:41:59;;;;;;;30.92;22.92;;;;;;;;;;5041422;28;20208;-75
2021/10/10 10:44:38;;;;;;;32.40;23.70;;;;;;;;;;5030621;28;20182;-75
2021/10/10 10:47:13;;;;;;;33.05;24.33;;;;;;;;;;5042289;28;20680;-75
2021/10/10 10:49:51;;;;;;;32.08;23.52;;;;;;;;;;5040229;28;20189;-75
2021/10/10 10:52:25;;;;;;;34.67;23.10;;;;;;;;;;5043742;28;20617;-75
2021/10/10 10:55:10;;;;;;;34.22;23.52;;;;;;;;;;5034286;28;20244;-75
2021/10/10 10:57:41;;;;;;;35.35;23.80;;;;;;;;;;5040364;28;20628;-73
2021/10/10 11:00:09;;;;;;;31.13;22.88;;;;;;;;;;5037365;28;20237;-73
2021/10/10 11:02:51;;;;;;;31.17;22.52;;;;;;;;;;5041331;28;21246;-74
2021/10/10 11:05:37;;;;;;;33.05;23.75;;;;;;;;;;5030557;28;20193;-75
2021/10/10 11:08:09;;;;;;;37.40;23.83;;;;;;;;;;5044937;28;20189;-74
2021/10/10 11:10:37;;;;;;;30.55;22.50;;;;;;;;;;5032323;28;20263;-74
2021/10/10 11:13:05;;;;;;;30.63;22.70;;;;;;;;;;5045079;28;20188;-74
2021/10/10 11:15:51;;;;;;;31.35;22.75;;;;;;;;;;5033285;28;20216;-75
2021/10/10 11:18:18;;;;;;;29.48;20.65;;;;;;;;;;5047640;28;20256;-75
2021/10/10 11:20:55;;;;;;;28.77;20.42;;;;;;;;;;5037485;28;20193;-75
2021/10/10 11:23:22;;;;;;;29.10;19.83;;;;;;;;;;5045219;28;20183;-75
2021/10/10 11:25:49;;;;;;;30.65;21.33;;;;;;;;;;5045477;28;20185;-75
2021/10/10 11:28:19;;;;;;;29.55;20.75;;;;;;;;;;5028637;28;20255;-74
2021/10/10 11:30:45;;;;;;;27.50;21.02;;;;;;;;;;5037516;28;20679;-74
2021/10/10 11:33:13;;;;;;;29.40;19.40;;;;;;;;;;5031654;28;20213;-74
2021/10/10 11:35:42;;;;;;;25.35;19.38;;;;;;;;;;5037513;28;20213;-74
2021/10/10 11:38:09;;;;;;;27.00;18.88;;;;;;;;;;5031833;28;20201;-74
2021/10/10 11:40:55;;;;;;;29.50;19.70;;;;;;;;;;5040003;28;20252;-74
2021/10/10 11:43:22;;;;;;;29.05;20.00;;;;;;;;;;5028062;28;20186;-74
2021/10/10 11:45:55;;;;;;;28.02;18.85;;;;;;;;;;5033585;28;20212;-74
2021/10/10 11:48:37;;;;;;;27.42;18.92;;;;;;;;;;5025703;28;20264;-74
2021/10/10 11:51:03;;;;;;;30.83;20.05;;;;;;;;;;5036112;28;20276;-74
2021/10/10 11:53:44;;;;;;;28.13;19.52;;;;;;;;;;5035021;28;20211;-74
2021/10/10 11:56:10;;;;;;;26.75;18.92;;;;;;;;;;5040415;28;20189;-75
2021/10/10 11:58:35;;;;;;;22.00;16.23;;;;;;;;;;5032143;28;20704;-74
2021/10/10 12:01:09;;;;;;;24.35;14.55;;;;;;;;;;5043603;28;20186;-75
2021/10/10 12:03:34;;;;;;;23.42;15.63;;;;;;;;;;5031914;28;20186;-74
2021/10/10 12:05:59;;;;;;;24.92;16.58;;;;;;;;;;5037101;28;20673;-74
2021/10/10 12:08:25;;;;;;;23.58;16.40;;;;;;;;;;5025267;28;20235;-75
2021/10/10 12:10:51;;;;;;;21.10;15.90;;;;;;;;;;5033772;28;20231;-76
2021/10/10 12:13:18;;;;;;;22.60;17.40;;;;;;;;;;5036784;28;20660;-75
2021/10/10 12:15:44;;;;;;;24.50;17.50;;;;;;;;;;5027571;28;20270;-75
2021/10/10 12:18:13;;;;;;;21.13;15.60;;;;;;;;;;5034664;28;20184;-74
2021/10/10 12:20:40;;;;;;;27.40;16.10;;;;;;;;;;5029049;28;20720;-75
2021/10/10 12:23:10;;;;;;;26.73;16.02;;;;;;;;;;5040473;28;20193;-74
2021/10/10 12:25:38;;;;;;;22.35;15.30;;;;;;;;;;5031083;28;20583;-76
2021/10/10 12:28:19;;;;;;;23.48;16.38;;;;;;;;;;5039227;28;20541;-76
2021/10/10 12:30:58;;;;;;;22.45;15.25;;;;;;;;;;5026872;28;20194;-75
2021/10/10 12:33:40;;;;;;;27.58;16.60;;;;;;;;;;5037796;28;20193;-76
2021/10/10 12:36:05;;;;;;;21.35;15.95;;;;;;;;;;5033734;28;20224;-75
2021/10/10 12:38:49;;;;;;;28.35;16.98;;;;;;;;;;5037519;28;20719;-75
2021/10/10 12:41:21;;;;;;;24.77;16.67;;;;;;;;;;4335992;28;10001326;-76
2021/10/10 12:43:51;;;;;;;25.98;17.08;;;;;;;;;;5033417;28;20273;-76
2021/10/10 12:46:19;;;;;;;27.05;17.70;;;;;;;;;;5027687;28;20240;-76
2021/10/10 12:49:07;;;;;;;26.10;17.40;;;;;;;;;;5033530;28;20273;-75
2021/10/10 12:51:34;;;;;;;28.20;17.65;;;;;;;;;;5025378;28;20243;-75
2021/10/10 12:54:17;;;;;;;22.77;17.17;;;;;;;;;;5030828;28;20303;-76
2021/10/10 12:57:05;;;;;;;27.60;18.00;;;;;;;;;;5028425;28;20229;-75
2021/10/10 12:59:33;;;;;;;30.20;18.33;;;;;;;;;;5034364;28;20185;-76
2021/10/10 13:01:58;;;;;;;30.38;19.20;;;;;;;;;;5023308;28;20194;-78
2021/10/10 13:04:24;;;;;;;24.00;16.65;;;;;;;;;;5034753;28;20296;-76
2021/10/10 13:06:50;;;;;;;24.67;17.67;;;;;;;;;;5031869;28;20288;-77
2021/10/10 13:09:17;;;;;;;24.65;17.17;;;;;;;;;;5034203;28;20359;-76
2021/10/10 13:11:43;;;;;;;25.13;16.20;;;;;;;;;;5031844;28;20185;-75
2021/10/10 13:14:09;;;;;;;25.90;15.52;;;;;;;;;;5037749;28;20200;-75
2021/10/10 13:16:35;;;;;;;24.73;14.70;;;;;;;;;;5033807;28;20194;-76
2021/10/10 13:19:00;;;;;;;26.15;15.32;;;;;;;;;;5025233;28;20669;-76
2021/10/10 13:21:27;;;;;;;25.05;17.20;;;;;;;;;;5032256;28;20196;-75
2021/10/10 13:23:53;;;;;;;24.42;17.25;;;;;;;;;;5023191;28;20204;-75
2021/10/10 13:26:19;;;;;;;25.17;17.73;;;;;;;;;;5035479;28;20182;-75
2021/10/10 13:28:45;;;;;;;28.23;17.98;;;;;;;;;;5024353;28;20186;-78
2021/10/10 13:31:10;;;;;;;29.02;19.33;;;;;;;;;;5032966;28;20322;-76
2021/10/10 13:33:36;;;;;;;29.30;18.50;;;;;;;;;;5022805;28;20194;-76
2021/10/10 13:36:05;;;;;;;33.92;19.80;;;;;;;;;;5032455;28;20189;-76
2021/10/10 13:38:31;;;;;;;28.25;21.08;;;;;;;;;;5023993;28;20181;-75
2021/10/10 13:40:57;;;;;;;28.23;20.55;;;;;;;;;;5031718;28;20211;-76
2021/10/10 13:43:24;;;;;;;30.70;20.77;;;;;;;;;;5024726;28;20197;-76
2021/10/10 13:45:56;;;;;;;31.63;20.70;;;;;;;;;;5030711;28;20248;-75
2021/10/10 13:48:22;;;;;;;28.33;19.65;;;;;;;;;;5021236;28;20595;-75
2021/10/10 13:50:47;;;;;;;26.83;17.83;;;;;;;;;;5027242;28;20196;-77
2021/10/10 13:53:13;;;;;;;31.27;20.17;;;;;;;;;;5033702;28;20230;-75
2021/10/10 13:55:38;;;;;;;28.77;19.80;;;;;;;;;;5024917;28;20217;-75
2021/10/10 13:58:04;;;;;;;29.27;20.98;;;;;;;;;;5033882;28;20621;-76
2021/10/10 14:00:29;;;;;;;28.73;19.80;;;;;;;;;;5023377;28;20236;-75
2021/10/10 14:02:55;;;;;;;31.00;19.80;;;;;;;;;;5032473;28;20276;-76
2021/10/10 14:05:22;;;;;;;31.95;22.13;;;;;;;;;;5026967;28;20185;-75
2021/10/10 14:07:47;;;;;;;32.47;23.08;;;;;;;;;;5035353;28;20680;-75
2021/10/10 14:10:13;;;;;;;39.08;22.52;;;;;;;;;;5026786;28;20263;-75
2021/10/10 14:12:38;;;;;;;35.10;23.45;;;;;;;;;;5038206;28;20192;-75
2021/10/10 14:15:04;;;;;;;35.97;22.20;;;;;;;;;;5025222;28;20247;-76
2021/10/10 14:17:29;;;;;;;34.80;24.50;;;;;;;;;;5034153;28;20178;-75
2021/10/10 14:19:55;;;;;;;40.50;26.20;;;;;;;;;;5032411;28;20197;-75
2021/10/10 14:22:22;;;;;;;39.30;25.52;;;;;;;;;;5025656;28;20718;-75